Reedtown, Ohio
Current Conditions -  °F | °C
As of 4:52 PM on Friday 19 Dec 2014 (Local Time) from KMFD Reporting Station
Overcast Overcast  
Wind Chill: 28°   Ceiling: 1400
Heat Index: 28°   Visibility: 9mi
Dew Point: 23°   Wind: 3mph
Humidity: 81%   Direction: 270°W
Pressure: 30.24"   Gusts: NA
Location:  41.0654°N, 82.876°W
Report Text: KMFD 192152Z 27003KT 9SM OVC014 M02/M05 A3024 RMK AO2 SLP254 T10221050
Loading
Personal Weather Stations






























Interactive Weather Map New forecast layout! Learn more

10-Day Weather Forecast

Advertisements
Track Severe Weather on mobile